sensor_id;sensor_type;location;lat;lon;timestamp;P1;durP1;ratioP1;P2;durP2;ratioP2
10987;SDS011;5547;42.672;23.230;2023-05-16T00:00:39;37.65;;;25.63;;
10987;SDS011;5547;42.672;23.230;2023-05-16T00:03:40;39.47;;;25.87;;
10987;SDS011;5547;42.672;23.230;2023-05-16T00:06:42;41.65;;;26.27;;
10987;SDS011;5547;42.672;23.230;2023-05-16T00:09:42;36.03;;;26.63;;
10987;SDS011;5547;42.672;23.230;2023-05-16T00:12:42;39.00;;;26.17;;
10987;SDS011;5547;42.672;23.230;2023-05-16T00:15:43;34.50;;;23.97;;
10987;SDS011;5547;42.672;23.230;2023-05-16T00:18:43;36.83;;;25.90;;
10987;SDS011;5547;42.672;23.230;2023-05-16T00:21:44;33.53;;;24.30;;
10987;SDS011;5547;42.672;23.230;2023-05-16T00:24:45;33.60;;;24.83;;
10987;SDS011;5547;42.672;23.230;2023-05-16T00:27:45;35.23;;;25.10;;
10987;SDS011;5547;42.672;23.230;2023-05-16T00:30:46;35.37;;;25.10;;
10987;SDS011;5547;42.672;23.230;2023-05-16T00:33:46;33.83;;;24.73;;
10987;SDS011;5547;42.672;23.230;2023-05-16T00:36:48;31.77;;;22.20;;
10987;SDS011;5547;42.672;23.230;2023-05-16T00:39:49;31.23;;;23.13;;
10987;SDS011;5547;42.672;23.230;2023-05-16T00:42:49;32.00;;;22.60;;
10987;SDS011;5547;42.672;23.230;2023-05-16T00:45:50;29.83;;;22.90;;
10987;SDS011;5547;42.672;23.230;2023-05-16T00:48:50;29.63;;;22.02;;
10987;SDS011;5547;42.672;23.230;2023-05-16T00:51:51;29.60;;;21.50;;
10987;SDS011;5547;42.672;23.230;2023-05-16T00:54:52;31.92;;;23.48;;
10987;SDS011;5547;42.672;23.230;2023-05-16T00:57:53;33.00;;;23.53;;
10987;SDS011;5547;42.672;23.230;2023-05-16T01:00:53;33.50;;;23.70;;
10987;SDS011;5547;42.672;23.230;2023-05-16T01:03:54;35.05;;;24.65;;
10987;SDS011;5547;42.672;23.230;2023-05-16T01:06:56;37.10;;;25.25;;
10987;SDS011;5547;42.672;23.230;2023-05-16T01:09:57;31.90;;;23.33;;
10987;SDS011;5547;42.672;23.230;2023-05-16T01:13:08;33.85;;;24.98;;
10987;SDS011;5547;42.672;23.230;2023-05-16T01:16:45;35.37;;;25.73;;
10987;SDS011;5547;42.672;23.230;2023-05-16T01:26:41;34.25;;;26.17;;
10987;SDS011;5547;42.672;23.230;2023-05-16T01:29:42;38.90;;;27.40;;
10987;SDS011;5547;42.672;23.230;2023-05-16T01:32:42;33.73;;;26.13;;
10987;SDS011;5547;42.672;23.230;2023-05-16T01:35:50;37.43;;;28.10;;
10987;SDS011;5547;42.672;23.230;2023-05-16T01:39:06;38.50;;;28.23;;
10987;SDS011;5547;42.672;23.230;2023-05-16T01:42:22;41.05;;;28.80;;
10987;SDS011;5547;42.672;23.230;2023-05-16T01:45:28;37.53;;;27.88;;
10987;SDS011;5547;42.672;23.230;2023-05-16T01:48:33;39.97;;;29.58;;
10987;SDS011;5547;42.672;23.230;2023-05-16T01:51:59;36.45;;;27.40;;
10987;SDS011;5547;42.672;23.230;2023-05-16T01:55:03;39.00;;;28.63;;
10987;SDS011;5547;42.672;23.230;2023-05-16T01:58:05;40.05;;;29.67;;
10987;SDS011;5547;42.672;23.230;2023-05-16T02:01:07;43.65;;;32.80;;
10987;SDS011;5547;42.672;23.230;2023-05-16T02:04:07;39.97;;;29.02;;
10987;SDS011;5547;42.672;23.230;2023-05-16T02:07:08;39.63;;;30.97;;
10987;SDS011;5547;42.672;23.230;2023-05-16T02:10:09;40.63;;;29.83;;
10987;SDS011;5547;42.672;23.230;2023-05-16T02:13:10;41.03;;;30.42;;
10987;SDS011;5547;42.672;23.230;2023-05-16T02:16:10;38.53;;;30.00;;
10987;SDS011;5547;42.672;23.230;2023-05-16T02:19:11;39.23;;;30.00;;
10987;SDS011;5547;42.672;23.230;2023-05-16T02:22:11;39.93;;;30.47;;
10987;SDS011;5547;42.672;23.230;2023-05-16T02:25:13;39.57;;;31.07;;
10987;SDS011;5547;42.672;23.230;2023-05-16T02:28:13;43.42;;;32.75;;
10987;SDS011;5547;42.672;23.230;2023-05-16T02:31:27;40.60;;;30.80;;
10987;SDS011;5547;42.672;23.230;2023-05-16T02:34:28;40.63;;;31.48;;
10987;SDS011;5547;42.672;23.230;2023-05-16T02:37:28;37.83;;;29.52;;
10987;SDS011;5547;42.672;23.230;2023-05-16T02:40:28;37.78;;;29.73;;
10987;SDS011;5547;42.672;23.230;2023-05-16T02:43:29;35.17;;;27.80;;
10987;SDS011;5547;42.672;23.230;2023-05-16T02:46:31;33.80;;;25.07;;
10987;SDS011;5547;42.672;23.230;2023-05-16T02:49:33;33.55;;;26.70;;
10987;SDS011;5547;42.672;23.230;2023-05-16T02:52:33;31.90;;;25.57;;
10987;SDS011;5547;42.672;23.230;2023-05-16T02:55:33;35.17;;;26.70;;
10987;SDS011;5547;42.672;23.230;2023-05-16T02:58:34;34.13;;;25.67;;
10987;SDS011;5547;42.672;23.230;2023-05-16T03:01:35;33.87;;;26.40;;
10987;SDS011;5547;42.672;23.230;2023-05-16T03:04:35;33.88;;;26.30;;
10987;SDS011;5547;42.672;23.230;2023-05-16T03:07:36;33.22;;;26.27;;
10987;SDS011;5547;42.672;23.230;2023-05-16T03:10:37;33.22;;;26.20;;
10987;SDS011;5547;42.672;23.230;2023-05-16T03:13:37;34.87;;;27.80;;
10987;SDS011;5547;42.672;23.230;2023-05-16T03:16:38;35.33;;;28.17;;
10987;SDS011;5547;42.672;23.230;2023-05-16T03:19:40;34.53;;;26.25;;
10987;SDS011;5547;42.672;23.230;2023-05-16T03:22:40;34.43;;;25.73;;
10987;SDS011;5547;42.672;23.230;2023-05-16T03:25:41;32.00;;;25.23;;
10987;SDS011;5547;42.672;23.230;2023-05-16T03:28:42;33.25;;;26.08;;
10987;SDS011;5547;42.672;23.230;2023-05-16T03:31:42;32.10;;;25.30;;
10987;SDS011;5547;42.672;23.230;2023-05-16T03:34:42;30.83;;;25.45;;
10987;SDS011;5547;42.672;23.230;2023-05-16T03:37:43;31.55;;;25.05;;
10987;SDS011;5547;42.672;23.230;2023-05-16T03:40:43;33.17;;;24.70;;
10987;SDS011;5547;42.672;23.230;2023-05-16T03:43:44;35.57;;;25.43;;
10987;SDS011;5547;42.672;23.230;2023-05-16T03:46:44;30.70;;;23.63;;
10987;SDS011;5547;42.672;23.230;2023-05-16T03:49:45;30.47;;;24.17;;
10987;SDS011;5547;42.672;23.230;2023-05-16T03:52:45;30.30;;;23.73;;
10987;SDS011;5547;42.672;23.230;2023-05-16T03:55:45;29.63;;;24.80;;
10987;SDS011;5547;42.672;23.230;2023-05-16T03:58:46;48.20;;;35.00;;
10987;SDS011;5547;42.672;23.230;2023-05-16T04:01:48;31.58;;;25.02;;
10987;SDS011;5547;42.672;23.230;2023-05-16T04:04:49;30.33;;;24.95;;
10987;SDS011;5547;42.672;23.230;2023-05-16T04:07:50;31.07;;;25.53;;
10987;SDS011;5547;42.672;23.230;2023-05-16T04:10:50;31.53;;;24.17;;
10987;SDS011;5547;42.672;23.230;2023-05-16T04:13:50;29.67;;;22.93;;
10987;SDS011;5547;42.672;23.230;2023-05-16T04:16:52;33.00;;;24.63;;
10987;SDS011;5547;42.672;23.230;2023-05-16T04:19:53;29.47;;;24.10;;
10987;SDS011;5547;42.672;23.230;2023-05-16T04:22:53;30.30;;;24.57;;
10987;SDS011;5547;42.672;23.230;2023-05-16T04:25:54;28.03;;;23.70;;
10987;SDS011;5547;42.672;23.230;2023-05-16T04:28:55;27.07;;;22.27;;
10987;SDS011;5547;42.672;23.230;2023-05-16T04:31:57;28.40;;;23.53;;
10987;SDS011;5547;42.672;23.230;2023-05-16T04:34:57;30.33;;;23.27;;
10987;SDS011;5547;42.672;23.230;2023-05-16T04:37:57;26.70;;;22.37;;
10987;SDS011;5547;42.672;23.230;2023-05-16T04:40:58;28.73;;;21.47;;
10987;SDS011;5547;42.672;23.230;2023-05-16T04:43:59;28.05;;;22.10;;
10987;SDS011;5547;42.672;23.230;2023-05-16T04:47:01;26.95;;;21.55;;
10987;SDS011;5547;42.672;23.230;2023-05-16T04:50:02;25.63;;;21.00;;
10987;SDS011;5547;42.672;23.230;2023-05-16T04:53:02;25.98;;;21.35;;
10987;SDS011;5547;42.672;23.230;2023-05-16T04:56:03;27.27;;;21.65;;
10987;SDS011;5547;42.672;23.230;2023-05-16T04:59:04;27.02;;;22.50;;
10987;SDS011;5547;42.672;23.230;2023-05-16T05:02:05;26.37;;;22.57;;
10987;SDS011;5547;42.672;23.230;2023-05-16T05:05:06;25.88;;;21.95;;
10987;SDS011;5547;42.672;23.230;2023-05-16T05:08:07;26.38;;;21.67;;
10987;SDS011;5547;42.672;23.230;2023-05-16T05:11:08;25.37;;;20.27;;
10987;SDS011;5547;42.672;23.230;2023-05-16T05:14:09;25.57;;;21.20;;
10987;SDS011;5547;42.672;23.230;2023-05-16T05:17:09;26.47;;;20.73;;
10987;SDS011;5547;42.672;23.230;2023-05-16T05:20:10;23.08;;;20.55;;
10987;SDS011;5547;42.672;23.230;2023-05-16T05:23:11;25.47;;;21.00;;
10987;SDS011;5547;42.672;23.230;2023-05-16T05:26:11;22.57;;;20.07;;
10987;SDS011;5547;42.672;23.230;2023-05-16T05:29:11;24.90;;;20.23;;
10987;SDS011;5547;42.672;23.230;2023-05-16T05:32:12;25.05;;;22.02;;
10987;SDS011;5547;42.672;23.230;2023-05-16T05:35:12;27.00;;;21.53;;
10987;SDS011;5547;42.672;23.230;2023-05-16T05:38:14;25.05;;;20.63;;
10987;SDS011;5547;42.672;23.230;2023-05-16T05:41:15;24.07;;;19.80;;
10987;SDS011;5547;42.672;23.230;2023-05-16T05:44:15;23.70;;;19.57;;
10987;SDS011;5547;42.672;23.230;2023-05-16T05:47:19;24.30;;;18.80;;
10987;SDS011;5547;42.672;23.230;2023-05-16T05:50:20;25.00;;;20.75;;
10987;SDS011;5547;42.672;23.230;2023-05-16T05:53:21;25.30;;;20.50;;
10987;SDS011;5547;42.672;23.230;2023-05-16T05:56:21;25.33;;;19.43;;
10987;SDS011;5547;42.672;23.230;2023-05-16T05:59:23;22.23;;;18.73;;
10987;SDS011;5547;42.672;23.230;2023-05-16T06:02:24;22.85;;;18.92;;
10987;SDS011;5547;42.672;23.230;2023-05-16T06:05:24;24.83;;;19.27;;
10987;SDS011;5547;42.672;23.230;2023-05-16T06:08:25;24.03;;;19.03;;
10987;SDS011;5547;42.672;23.230;2023-05-16T06:11:25;25.57;;;19.33;;
10987;SDS011;5547;42.672;23.230;2023-05-16T06:14:26;25.17;;;21.97;;
10987;SDS011;5547;42.672;23.230;2023-05-16T06:17:26;25.20;;;18.87;;
10987;SDS011;5547;42.672;23.230;2023-05-16T06:20:26;23.43;;;18.10;;
10987;SDS011;5547;42.672;23.230;2023-05-16T06:23:27;22.37;;;17.57;;
10987;SDS011;5547;42.672;23.230;2023-05-16T06:26:27;19.77;;;15.27;;
10987;SDS011;5547;42.672;23.230;2023-05-16T06:29:28;19.03;;;15.20;;
10987;SDS011;5547;42.672;23.230;2023-05-16T06:32:28;21.03;;;16.13;;
10987;SDS011;5547;42.672;23.230;2023-05-16T06:35:28;21.17;;;15.83;;
10987;SDS011;5547;42.672;23.230;2023-05-16T06:38:29;19.60;;;14.77;;
10987;SDS011;5547;42.672;23.230;2023-05-16T06:41:30;18.98;;;14.48;;
10987;SDS011;5547;42.672;23.230;2023-05-16T06:44:30;16.93;;;12.93;;
10987;SDS011;5547;42.672;23.230;2023-05-16T06:47:30;19.23;;;14.20;;
10987;SDS011;5547;42.672;23.230;2023-05-16T06:50:31;17.63;;;13.83;;
10987;SDS011;5547;42.672;23.230;2023-05-16T06:53:31;19.30;;;13.73;;
10987;SDS011;5547;42.672;23.230;2023-05-16T06:56:32;15.70;;;13.03;;
10987;SDS011;5547;42.672;23.230;2023-05-16T06:59:33;16.23;;;13.20;;
10987;SDS011;5547;42.672;23.230;2023-05-16T07:02:34;15.45;;;11.10;;
10987;SDS011;5547;42.672;23.230;2023-05-16T07:05:34;17.35;;;13.32;;
10987;SDS011;5547;42.672;23.230;2023-05-16T07:08:35;14.80;;;11.83;;
10987;SDS011;5547;42.672;23.230;2023-05-16T07:11:36;14.30;;;11.60;;
10987;SDS011;5547;42.672;23.230;2023-05-16T07:14:36;16.23;;;11.80;;
10987;SDS011;5547;42.672;23.230;2023-05-16T07:17:36;15.40;;;10.90;;
10987;SDS011;5547;42.672;23.230;2023-05-16T07:20:37;14.23;;;10.47;;
10987;SDS011;5547;42.672;23.230;2023-05-16T07:23:37;16.67;;;10.50;;
10987;SDS011;5547;42.672;23.230;2023-05-16T07:26:37;13.13;;;10.27;;
10987;SDS011;5547;42.672;23.230;2023-05-16T07:29:38;11.30;;;9.30;;
10987;SDS011;5547;42.672;23.230;2023-05-16T07:32:38;11.70;;;9.90;;
10987;SDS011;5547;42.672;23.230;2023-05-16T07:35:39;14.50;;;10.10;;
10987;SDS011;5547;42.672;23.230;2023-05-16T07:38:40;11.43;;;9.00;;
10987;SDS011;5547;42.672;23.230;2023-05-16T07:41:40;13.40;;;8.83;;
10987;SDS011;5547;42.672;23.230;2023-05-16T07:44:41;13.47;;;9.53;;
10987;SDS011;5547;42.672;23.230;2023-05-16T07:47:41;14.77;;;9.37;;
10987;SDS011;5547;42.672;23.230;2023-05-16T07:50:42;13.77;;;10.25;;
10987;SDS011;5547;42.672;23.230;2023-05-16T07:53:43;10.70;;;9.25;;
10987;SDS011;5547;42.672;23.230;2023-05-16T07:56:43;14.07;;;9.57;;
10987;SDS011;5547;42.672;23.230;2023-05-16T07:59:44;12.77;;;8.97;;
10987;SDS011;5547;42.672;23.230;2023-05-16T08:02:47;11.00;;;9.10;;
10987;SDS011;5547;42.672;23.230;2023-05-16T08:05:48;14.30;;;8.63;;
10987;SDS011;5547;42.672;23.230;2023-05-16T08:08:48;12.75;;;8.52;;
10987;SDS011;5547;42.672;23.230;2023-05-16T08:11:49;15.32;;;9.00;;
10987;SDS011;5547;42.672;23.230;2023-05-16T08:14:49;14.10;;;9.33;;
10987;SDS011;5547;42.672;23.230;2023-05-16T08:17:50;11.57;;;8.90;;
10987;SDS011;5547;42.672;23.230;2023-05-16T08:20:50;12.17;;;8.70;;
10987;SDS011;5547;42.672;23.230;2023-05-16T08:23:54;14.30;;;9.33;;
10987;SDS011;5547;42.672;23.230;2023-05-16T08:26:55;14.82;;;9.27;;
10987;SDS011;5547;42.672;23.230;2023-05-16T08:29:56;14.03;;;8.90;;
10987;SDS011;5547;42.672;23.230;2023-05-16T08:32:56;12.57;;;8.77;;
10987;SDS011;5547;42.672;23.230;2023-05-16T08:35:57;12.68;;;8.95;;
10987;SDS011;5547;42.672;23.230;2023-05-16T08:39:00;13.07;;;8.90;;
10987;SDS011;5547;42.672;23.230;2023-05-16T08:42:00;10.70;;;8.87;;
10987;SDS011;5547;42.672;23.230;2023-05-16T08:45:01;11.20;;;8.50;;
10987;SDS011;5547;42.672;23.230;2023-05-16T08:48:03;13.10;;;8.23;;
10987;SDS011;5547;42.672;23.230;2023-05-16T08:51:05;12.50;;;8.68;;
10987;SDS011;5547;42.672;23.230;2023-05-16T08:54:11;9.57;;;7.63;;
10987;SDS011;5547;42.672;23.230;2023-05-16T08:57:13;11.57;;;8.10;;
10987;SDS011;5547;42.672;23.230;2023-05-16T09:00:15;10.57;;;7.78;;
10987;SDS011;5547;42.672;23.230;2023-05-16T09:03:18;12.70;;;8.43;;
10987;SDS011;5547;42.672;23.230;2023-05-16T09:06:20;10.68;;;7.43;;
10987;SDS011;5547;42.672;23.230;2023-05-16T09:09:20;12.25;;;7.55;;
10987;SDS011;5547;42.672;23.230;2023-05-16T09:12:21;11.85;;;7.35;;
10987;SDS011;5547;42.672;23.230;2023-05-16T09:15:22;12.38;;;6.95;;
10987;SDS011;5547;42.672;23.230;2023-05-16T09:18:22;12.03;;;7.00;;
10987;SDS011;5547;42.672;23.230;2023-05-16T09:21:26;12.17;;;7.13;;
10987;SDS011;5547;42.672;23.230;2023-05-16T09:24:29;10.38;;;7.35;;
10987;SDS011;5547;42.672;23.230;2023-05-16T09:27:30;10.02;;;6.57;;
10987;SDS011;5547;42.672;23.230;2023-05-16T09:30:32;9.65;;;7.13;;
10987;SDS011;5547;42.672;23.230;2023-05-16T09:33:33;10.32;;;7.40;;
10987;SDS011;5547;42.672;23.230;2023-05-16T09:36:34;9.90;;;6.77;;
10987;SDS011;5547;42.672;23.230;2023-05-16T09:39:35;11.43;;;6.85;;
10987;SDS011;5547;42.672;23.230;2023-05-16T09:42:36;11.20;;;7.47;;
10987;SDS011;5547;42.672;23.230;2023-05-16T09:45:37;12.57;;;7.57;;
10987;SDS011;5547;42.672;23.230;2023-05-16T09:48:47;10.43;;;7.47;;
10987;SDS011;5547;42.672;23.230;2023-05-16T09:51:48;9.98;;;7.05;;
10987;SDS011;5547;42.672;23.230;2023-05-16T09:54:48;12.55;;;7.93;;
10987;SDS011;5547;42.672;23.230;2023-05-16T09:57:49;11.93;;;7.60;;
10987;SDS011;5547;42.672;23.230;2023-05-16T10:00:49;9.43;;;7.70;;
10987;SDS011;5547;42.672;23.230;2023-05-16T10:03:50;10.25;;;8.00;;
10987;SDS011;5547;42.672;23.230;2023-05-16T10:06:51;10.47;;;7.60;;
10987;SDS011;5547;42.672;23.230;2023-05-16T10:09:57;11.03;;;7.40;;
10987;SDS011;5547;42.672;23.230;2023-05-16T10:13:05;11.88;;;7.32;;
10987;SDS011;5547;42.672;23.230;2023-05-16T10:16:09;9.73;;;6.88;;
10987;SDS011;5547;42.672;23.230;2023-05-16T10:19:11;10.93;;;6.97;;
10987;SDS011;5547;42.672;23.230;2023-05-16T10:22:13;11.63;;;7.78;;
10987;SDS011;5547;42.672;23.230;2023-05-16T10:28:27;12.30;;;7.60;;
10987;SDS011;5547;42.672;23.230;2023-05-16T10:31:28;12.27;;;7.70;;
10987;SDS011;5547;42.672;23.230;2023-05-16T10:34:30;14.98;;;8.77;;
10987;SDS011;5547;42.672;23.230;2023-05-16T10:37:30;13.80;;;8.10;;
10987;SDS011;5547;42.672;23.230;2023-05-16T10:40:32;11.00;;;8.07;;
10987;SDS011;5547;42.672;23.230;2023-05-16T10:43:33;13.32;;;8.98;;
10987;SDS011;5547;42.672;23.230;2023-05-16T10:46:33;11.63;;;8.40;;
10987;SDS011;5547;42.672;23.230;2023-05-16T10:49:34;10.80;;;8.90;;
10987;SDS011;5547;42.672;23.230;2023-05-16T10:52:40;13.80;;;9.03;;
10987;SDS011;5547;42.672;23.230;2023-05-16T10:55:46;10.43;;;9.00;;
10987;SDS011;5547;42.672;23.230;2023-05-16T10:59:00;13.25;;;9.23;;
10987;SDS011;5547;42.672;23.230;2023-05-16T11:02:03;11.73;;;8.98;;
10987;SDS011;5547;42.672;23.230;2023-05-16T11:05:21;12.70;;;8.88;;
10987;SDS011;5547;42.672;23.230;2023-05-16T11:08:24;13.00;;;9.53;;
10987;SDS011;5547;42.672;23.230;2023-05-16T11:14:57;11.82;;;8.73;;
10987;SDS011;5547;42.672;23.230;2023-05-16T11:21:05;12.88;;;9.73;;
10987;SDS011;5547;42.672;23.230;2023-05-16T11:24:48;12.40;;;9.05;;
10987;SDS011;5547;42.672;23.230;2023-05-16T11:27:30;11.90;;;9.23;;
10987;SDS011;5547;42.672;23.230;2023-05-16T11:30:36;14.85;;;9.48;;
10987;SDS011;5547;42.672;23.230;2023-05-16T11:34:04;13.95;;;9.90;;
10987;SDS011;5547;42.672;23.230;2023-05-16T11:37:05;13.10;;;9.23;;
10987;SDS011;5547;42.672;23.230;2023-05-16T11:40:10;11.15;;;8.20;;
10987;SDS011;5547;42.672;23.230;2023-05-16T11:43:16;12.87;;;9.50;;
10987;SDS011;5547;42.672;23.230;2023-05-16T11:46:18;11.50;;;9.25;;
10987;SDS011;5547;42.672;23.230;2023-05-16T11:49:19;14.03;;;9.53;;
10987;SDS011;5547;42.672;23.230;2023-05-16T11:52:19;15.30;;;9.80;;
10987;SDS011;5547;42.672;23.230;2023-05-16T11:55:22;12.25;;;10.07;;
10987;SDS011;5547;42.672;23.230;2023-05-16T11:58:27;18.20;;;10.60;;
10987;SDS011;5547;42.672;23.230;2023-05-16T12:01:35;14.52;;;9.52;;
10987;SDS011;5547;42.672;23.230;2023-05-16T12:04:41;14.00;;;9.93;;
10987;SDS011;5547;42.672;23.230;2023-05-16T12:07:46;11.32;;;9.45;;
10987;SDS011;5547;42.672;23.230;2023-05-16T12:10:47;12.93;;;9.70;;
10987;SDS011;5547;42.672;23.230;2023-05-16T12:13:50;12.25;;;9.15;;
10987;SDS011;5547;42.672;23.230;2023-05-16T12:16:52;15.00;;;10.07;;
10987;SDS011;5547;42.672;23.230;2023-05-16T12:19:53;15.40;;;10.65;;
10987;SDS011;5547;42.672;23.230;2023-05-16T12:22:56;14.75;;;10.02;;
10987;SDS011;5547;42.672;23.230;2023-05-16T12:25:57;13.27;;;9.77;;
10987;SDS011;5547;42.672;23.230;2023-05-16T12:29:01;14.88;;;10.02;;
10987;SDS011;5547;42.672;23.230;2023-05-16T12:32:06;16.65;;;10.10;;
10987;SDS011;5547;42.672;23.230;2023-05-16T12:35:09;13.50;;;9.68;;
10987;SDS011;5547;42.672;23.230;2023-05-16T12:38:12;15.90;;;10.63;;
10987;SDS011;5547;42.672;23.230;2023-05-16T12:41:25;13.65;;;10.40;;
10987;SDS011;5547;42.672;23.230;2023-05-16T12:44:28;13.25;;;10.45;;
10987;SDS011;5547;42.672;23.230;2023-05-16T12:47:36;14.87;;;9.53;;
10987;SDS011;5547;42.672;23.230;2023-05-16T12:50:37;16.40;;;10.82;;
10987;SDS011;5547;42.672;23.230;2023-05-16T12:53:43;17.35;;;12.23;;
10987;SDS011;5547;42.672;23.230;2023-05-16T12:56:46;21.40;;;13.43;;
10987;SDS011;5547;42.672;23.230;2023-05-16T12:59:51;15.20;;;11.37;;
10987;SDS011;5547;42.672;23.230;2023-05-16T13:02:52;16.73;;;10.97;;
10987;SDS011;5547;42.672;23.230;2023-05-16T13:05:53;17.25;;;12.10;;
10987;SDS011;5547;42.672;23.230;2023-05-16T13:08:54;15.07;;;11.70;;
10987;SDS011;5547;42.672;23.230;2023-05-16T13:11:55;16.65;;;11.73;;
10987;SDS011;5547;42.672;23.230;2023-05-16T13:14:56;14.13;;;11.20;;
10987;SDS011;5547;42.672;23.230;2023-05-16T13:17:57;14.70;;;11.33;;
10987;SDS011;5547;42.672;23.230;2023-05-16T13:21:00;15.48;;;11.07;;
10987;SDS011;5547;42.672;23.230;2023-05-16T13:24:03;16.15;;;11.55;;
10987;SDS011;5547;42.672;23.230;2023-05-16T13:27:03;17.10;;;11.75;;
10987;SDS011;5547;42.672;23.230;2023-05-16T13:30:05;13.82;;;10.75;;
10987;SDS011;5547;42.672;23.230;2023-05-16T13:33:06;18.08;;;11.82;;
10987;SDS011;5547;42.672;23.230;2023-05-16T13:36:07;16.67;;;11.83;;
10987;SDS011;5547;42.672;23.230;2023-05-16T13:39:08;13.43;;;11.60;;
10987;SDS011;5547;42.672;23.230;2023-05-16T13:42:09;19.57;;;14.27;;
10987;SDS011;5547;42.672;23.230;2023-05-16T13:45:10;16.85;;;14.90;;
10987;SDS011;5547;42.672;23.230;2023-05-16T13:48:11;16.92;;;12.93;;
10987;SDS011;5547;42.672;23.230;2023-05-16T13:51:12;16.20;;;13.40;;
10987;SDS011;5547;42.672;23.230;2023-05-16T13:54:12;17.67;;;12.00;;
10987;SDS011;5547;42.672;23.230;2023-05-16T13:57:13;17.57;;;13.27;;
10987;SDS011;5547;42.672;23.230;2023-05-16T14:00:13;19.35;;;13.27;;
10987;SDS011;5547;42.672;23.230;2023-05-16T14:03:14;18.25;;;12.50;;
10987;SDS011;5547;42.672;23.230;2023-05-16T14:06:15;19.87;;;13.83;;
10987;SDS011;5547;42.672;23.230;2023-05-16T14:09:15;18.40;;;14.67;;
10987;SDS011;5547;42.672;23.230;2023-05-16T14:12:16;16.53;;;14.30;;
10987;SDS011;5547;42.672;23.230;2023-05-16T14:15:16;19.00;;;13.67;;
10987;SDS011;5547;42.672;23.230;2023-05-16T14:18:17;19.40;;;15.07;;
10987;SDS011;5547;42.672;23.230;2023-05-16T14:21:17;22.23;;;16.88;;
10987;SDS011;5547;42.672;23.230;2023-05-16T14:24:18;22.90;;;16.33;;
10987;SDS011;5547;42.672;23.230;2023-05-16T14:27:19;20.63;;;15.40;;
10987;SDS011;5547;42.672;23.230;2023-05-16T14:30:19;20.37;;;14.13;;
10987;SDS011;5547;42.672;23.230;2023-05-16T14:33:20;21.20;;;14.33;;
10987;SDS011;5547;42.672;23.230;2023-05-16T14:36:20;19.73;;;11.53;;
10987;SDS011;5547;42.672;23.230;2023-05-16T14:39:21;15.77;;;10.93;;
10987;SDS011;5547;42.672;23.230;2023-05-16T14:42:21;14.38;;;10.23;;
10987;SDS011;5547;42.672;23.230;2023-05-16T14:45:22;18.17;;;11.80;;
10987;SDS011;5547;42.672;23.230;2023-05-16T14:48:22;17.83;;;11.30;;
10987;SDS011;5547;42.672;23.230;2023-05-16T14:51:23;18.80;;;10.80;;
10987;SDS011;5547;42.672;23.230;2023-05-16T14:54:23;18.93;;;10.17;;
10987;SDS011;5547;42.672;23.230;2023-05-16T14:57:23;15.90;;;9.50;;
10987;SDS011;5547;42.672;23.230;2023-05-16T15:00:24;16.70;;;10.07;;
10987;SDS011;5547;42.672;23.230;2023-05-16T15:03:25;12.68;;;9.70;;
10987;SDS011;5547;42.672;23.230;2023-05-16T15:06:25;16.23;;;10.85;;
10987;SDS011;5547;42.672;23.230;2023-05-16T15:09:26;14.98;;;9.63;;
10987;SDS011;5547;42.672;23.230;2023-05-16T15:12:26;13.75;;;9.88;;
10987;SDS011;5547;42.672;23.230;2023-05-16T15:15:27;14.85;;;10.07;;
10987;SDS011;5547;42.672;23.230;2023-05-16T15:18:27;16.48;;;10.43;;
10987;SDS011;5547;42.672;23.230;2023-05-16T15:21:28;14.57;;;10.83;;
10987;SDS011;5547;42.672;23.230;2023-05-16T15:24:29;15.43;;;10.63;;
10987;SDS011;5547;42.672;23.230;2023-05-16T15:27:29;14.73;;;10.57;;
10987;SDS011;5547;42.672;23.230;2023-05-16T15:30:30;14.40;;;10.18;;
10987;SDS011;5547;42.672;23.230;2023-05-16T15:33:30;14.38;;;10.20;;
10987;SDS011;5547;42.672;23.230;2023-05-16T15:36:31;14.95;;;10.65;;
10987;SDS011;5547;42.672;23.230;2023-05-16T15:39:31;14.10;;;10.63;;
10987;SDS011;5547;42.672;23.230;2023-05-16T15:42:31;14.75;;;9.80;;
10987;SDS011;5547;42.672;23.230;2023-05-16T15:45:32;13.13;;;10.20;;
10987;SDS011;5547;42.672;23.230;2023-05-16T15:48:32;15.38;;;10.98;;
10987;SDS011;5547;42.672;23.230;2023-05-16T15:51:33;18.00;;;12.33;;
10987;SDS011;5547;42.672;23.230;2023-05-16T15:54:34;16.63;;;11.55;;
10987;SDS011;5547;42.672;23.230;2023-05-16T15:57:35;15.10;;;12.32;;
10987;SDS011;5547;42.672;23.230;2023-05-16T16:00:36;14.63;;;12.93;;
10987;SDS011;5547;42.672;23.230;2023-05-16T16:03:39;18.20;;;15.10;;
10987;SDS011;5547;42.672;23.230;2023-05-16T16:06:39;17.53;;;14.80;;
10987;SDS011;5547;42.672;23.230;2023-05-16T16:09:40;21.27;;;18.93;;
10987;SDS011;5547;42.672;23.230;2023-05-16T16:12:40;36.20;;;29.03;;
10987;SDS011;5547;42.672;23.230;2023-05-16T16:15:41;30.67;;;25.00;;
10987;SDS011;5547;42.672;23.230;2023-05-16T16:18:41;38.80;;;31.03;;
10987;SDS011;5547;42.672;23.230;2023-05-16T16:21:42;37.78;;;29.38;;
10987;SDS011;5547;42.672;23.230;2023-05-16T16:24:42;34.53;;;24.53;;
10987;SDS011;5547;42.672;23.230;2023-05-16T16:27:43;37.40;;;27.30;;
10987;SDS011;5547;42.672;23.230;2023-05-16T16:30:43;33.67;;;25.00;;
10987;SDS011;5547;42.672;23.230;2023-05-16T16:33:46;31.55;;;24.60;;
10987;SDS011;5547;42.672;23.230;2023-05-16T16:36:48;32.45;;;23.23;;
10987;SDS011;5547;42.672;23.230;2023-05-16T16:39:48;29.23;;;22.00;;
10987;SDS011;5547;42.672;23.230;2023-05-16T16:42:48;27.63;;;20.17;;
10987;SDS011;5547;42.672;23.230;2023-05-16T16:45:49;26.70;;;19.77;;
10987;SDS011;5547;42.672;23.230;2023-05-16T16:48:49;25.80;;;19.83;;
10987;SDS011;5547;42.672;23.230;2023-05-16T16:51:51;28.90;;;21.48;;
10987;SDS011;5547;42.672;23.230;2023-05-16T16:54:51;27.13;;;20.70;;
10987;SDS011;5547;42.672;23.230;2023-05-16T16:57:52;24.47;;;20.43;;
10987;SDS011;5547;42.672;23.230;2023-05-16T17:00:52;24.67;;;19.03;;
10987;SDS011;5547;42.672;23.230;2023-05-16T17:03:53;23.60;;;20.15;;
10987;SDS011;5547;42.672;23.230;2023-05-16T17:06:53;26.50;;;18.65;;
10987;SDS011;5547;42.672;23.230;2023-05-16T17:09:54;22.27;;;18.47;;
10987;SDS011;5547;42.672;23.230;2023-05-16T17:12:55;21.60;;;16.70;;
10987;SDS011;5547;42.672;23.230;2023-05-16T17:16:02;23.73;;;19.00;;
10987;SDS011;5547;42.672;23.230;2023-05-16T17:19:03;24.65;;;18.00;;
10987;SDS011;5547;42.672;23.230;2023-05-16T17:22:03;25.08;;;19.27;;
10987;SDS011;5547;42.672;23.230;2023-05-16T17:25:06;23.75;;;18.52;;
10987;SDS011;5547;42.672;23.230;2023-05-16T17:28:07;25.23;;;19.20;;
10987;SDS011;5547;42.672;23.230;2023-05-16T17:31:07;25.47;;;18.57;;
10987;SDS011;5547;42.672;23.230;2023-05-16T17:34:07;25.13;;;20.93;;
10987;SDS011;5547;42.672;23.230;2023-05-16T17:37:08;23.37;;;20.23;;
10987;SDS011;5547;42.672;23.230;2023-05-16T17:40:09;29.15;;;23.38;;
10987;SDS011;5547;42.672;23.230;2023-05-16T17:43:15;32.97;;;24.92;;
10987;SDS011;5547;42.672;23.230;2023-05-16T17:46:15;35.17;;;24.90;;
10987;SDS011;5547;42.672;23.230;2023-05-16T17:49:16;33.23;;;25.17;;
10987;SDS011;5547;42.672;23.230;2023-05-16T17:52:16;35.47;;;25.93;;
10987;SDS011;5547;42.672;23.230;2023-05-16T17:55:19;35.63;;;27.13;;
10987;SDS011;5547;42.672;23.230;2023-05-16T17:58:19;32.43;;;25.93;;
10987;SDS011;5547;42.672;23.230;2023-05-16T18:01:20;34.28;;;25.85;;
10987;SDS011;5547;42.672;23.230;2023-05-16T18:04:21;34.07;;;25.33;;